sensor_id;sensor_type;location;lat;lon;timestamp;temperature;humidity
60868;DHT22;46702;48.370;10.794;2023-09-30T00:01:09;15.10;99.90
60868;DHT22;46702;48.370;10.794;2023-09-30T00:03:36;14.90;99.90
60868;DHT22;46702;48.370;10.794;2023-09-30T00:06:01;14.90;99.90
60868;DHT22;46702;48.370;10.794;2023-09-30T00:08:27;14.90;99.90
60868;DHT22;46702;48.370;10.794;2023-09-30T00:10:53;14.90;99.90
60868;DHT22;46702;48.370;10.794;2023-09-30T00:13:19;14.90;99.90
60868;DHT22;46702;48.370;10.794;2023-09-30T00:15:45;14.90;99.90
60868;DHT22;46702;48.370;10.794;2023-09-30T00:18:10;14.80;99.90
60868;DHT22;46702;48.370;10.794;2023-09-30T00:20:36;14.70;99.90
60868;DHT22;46702;48.370;10.794;2023-09-30T00:23:02;14.70;99.90
60868;DHT22;46702;48.370;10.794;2023-09-30T00:25:27;14.60;99.90
60868;DHT22;46702;48.370;10.794;2023-09-30T00:27:53;14.40;99.90
60868;DHT22;46702;48.370;10.794;2023-09-30T00:30:18;14.20;99.90
60868;DHT22;46702;48.370;10.794;2023-09-30T00:32:44;14.20;99.90
60868;DHT22;46702;48.370;10.794;2023-09-30T00:35:13;14.20;99.90
60868;DHT22;46702;48.370;10.794;2023-09-30T00:37:38;14.10;99.90
60868;DHT22;46702;48.370;10.794;2023-09-30T00:40:05;14.10;99.90
60868;DHT22;46702;48.370;10.794;2023-09-30T00:42:31;14.00;99.90
60868;DHT22;46702;48.370;10.794;2023-09-30T00:44:57;14.00;99.90
60868;DHT22;46702;48.370;10.794;2023-09-30T00:47:23;14.00;99.90
60868;DHT22;46702;48.370;10.794;2023-09-30T00:49:50;14.00;99.90
60868;DHT22;46702;48.370;10.794;2023-09-30T00:52:17;14.10;99.90
60868;DHT22;46702;48.370;10.794;2023-09-30T00:54:43;14.10;99.90
60868;DHT22;46702;48.370;10.794;2023-09-30T00:57:10;14.00;99.90
60868;DHT22;46702;48.370;10.794;2023-09-30T00:59:37;14.00;99.90
60868;DHT22;46702;48.370;10.794;2023-09-30T01:02:03;14.00;99.90
60868;DHT22;46702;48.370;10.794;2023-09-30T01:04:31;14.10;99.90
60868;DHT22;46702;48.370;10.794;2023-09-30T01:06:56;14.00;99.90
60868;DHT22;46702;48.370;10.794;2023-09-30T01:09:25;14.10;99.90
60868;DHT22;46702;48.370;10.794;2023-09-30T01:11:51;14.00;99.90
60868;DHT22;46702;48.370;10.794;2023-09-30T01:14:30;14.00;99.90
60868;DHT22;46702;48.370;10.794;2023-09-30T01:16:56;13.90;99.90
60868;DHT22;46702;48.370;10.794;2023-09-30T01:19:23;13.80;99.90
60868;DHT22;46702;48.370;10.794;2023-09-30T01:21:55;13.90;99.90
60868;DHT22;46702;48.370;10.794;2023-09-30T01:24:24;13.70;99.90
60868;DHT22;46702;48.370;10.794;2023-09-30T01:26:51;13.70;99.90
60868;DHT22;46702;48.370;10.794;2023-09-30T01:29:16;13.50;99.90
60868;DHT22;46702;48.370;10.794;2023-09-30T01:31:42;13.40;99.90
60868;DHT22;46702;48.370;10.794;2023-09-30T01:34:08;13.50;99.90
60868;DHT22;46702;48.370;10.794;2023-09-30T01:36:36;13.50;99.90
60868;DHT22;46702;48.370;10.794;2023-09-30T01:39:01;13.50;99.90
60868;DHT22;46702;48.370;10.794;2023-09-30T01:41:28;13.50;99.90
60868;DHT22;46702;48.370;10.794;2023-09-30T01:43:54;13.60;99.90
60868;DHT22;46702;48.370;10.794;2023-09-30T01:46:19;13.60;99.90
60868;DHT22;46702;48.370;10.794;2023-09-30T01:48:45;13.60;99.90
60868;DHT22;46702;48.370;10.794;2023-09-30T01:51:11;13.70;99.90
60868;DHT22;46702;48.370;10.794;2023-09-30T01:53:38;13.60;99.90
60868;DHT22;46702;48.370;10.794;2023-09-30T01:56:03;13.60;99.90
60868;DHT22;46702;48.370;10.794;2023-09-30T01:58:29;13.60;99.90
60868;DHT22;46702;48.370;10.794;2023-09-30T02:01:04;13.60;99.90
60868;DHT22;46702;48.370;10.794;2023-09-30T02:03:29;13.50;99.90
60868;DHT22;46702;48.370;10.794;2023-09-30T02:05:59;13.30;99.90
60868;DHT22;46702;48.370;10.794;2023-09-30T02:08:24;13.20;99.90
60868;DHT22;46702;48.370;10.794;2023-09-30T02:10:50;13.10;99.90
60868;DHT22;46702;48.370;10.794;2023-09-30T02:13:19;13.00;99.90
60868;DHT22;46702;48.370;10.794;2023-09-30T02:15:45;13.00;99.90
60868;DHT22;46702;48.370;10.794;2023-09-30T02:18:11;12.90;99.90
60868;DHT22;46702;48.370;10.794;2023-09-30T02:20:37;12.90;99.90
60868;DHT22;46702;48.370;10.794;2023-09-30T02:23:09;12.90;99.90
60868;DHT22;46702;48.370;10.794;2023-09-30T02:25:38;12.90;99.90
60868;DHT22;46702;48.370;10.794;2023-09-30T02:28:06;12.80;99.90
60868;DHT22;46702;48.370;10.794;2023-09-30T02:30:32;12.80;99.90
60868;DHT22;46702;48.370;10.794;2023-09-30T02:32:57;12.90;99.90
60868;DHT22;46702;48.370;10.794;2023-09-30T02:35:23;12.90;99.90
60868;DHT22;46702;48.370;10.794;2023-09-30T02:37:50;13.00;99.90
60868;DHT22;46702;48.370;10.794;2023-09-30T02:40:17;13.00;99.90
60868;DHT22;46702;48.370;10.794;2023-09-30T02:42:43;13.00;99.90
60868;DHT22;46702;48.370;10.794;2023-09-30T02:45:10;12.90;99.90
60868;DHT22;46702;48.370;10.794;2023-09-30T02:47:37;12.90;99.90
60868;DHT22;46702;48.370;10.794;2023-09-30T02:50:04;12.90;99.90
60868;DHT22;46702;48.370;10.794;2023-09-30T02:52:30;12.50;99.90
60868;DHT22;46702;48.370;10.794;2023-09-30T02:54:57;12.40;99.90
60868;DHT22;46702;48.370;10.794;2023-09-30T02:57:24;12.40;99.90
60868;DHT22;46702;48.370;10.794;2023-09-30T02:59:50;12.50;99.90
60868;DHT22;46702;48.370;10.794;2023-09-30T03:02:17;12.40;99.90
60868;DHT22;46702;48.370;10.794;2023-09-30T03:04:44;12.40;99.90
60868;DHT22;46702;48.370;10.794;2023-09-30T03:07:10;12.40;99.90
60868;DHT22;46702;48.370;10.794;2023-09-30T03:09:36;12.40;99.90
60868;DHT22;46702;48.370;10.794;2023-09-30T03:12:02;12.50;99.90
60868;DHT22;46702;48.370;10.794;2023-09-30T03:14:30;12.60;99.90
60868;DHT22;46702;48.370;10.794;2023-09-30T03:17:00;12.60;99.90
60868;DHT22;46702;48.370;10.794;2023-09-30T03:19:26;12.60;99.90
60868;DHT22;46702;48.370;10.794;2023-09-30T03:21:52;12.50;99.90
60868;DHT22;46702;48.370;10.794;2023-09-30T03:24:18;12.50;99.90
60868;DHT22;46702;48.370;10.794;2023-09-30T03:26:43;12.50;99.90
60868;DHT22;46702;48.370;10.794;2023-09-30T03:29:09;12.30;99.90
60868;DHT22;46702;48.370;10.794;2023-09-30T03:31:36;12.10;99.90
60868;DHT22;46702;48.370;10.794;2023-09-30T03:34:04;12.10;99.90
60868;DHT22;46702;48.370;10.794;2023-09-30T03:36:30;12.20;99.90
60868;DHT22;46702;48.370;10.794;2023-09-30T03:38:56;12.20;99.90
60868;DHT22;46702;48.370;10.794;2023-09-30T03:41:25;12.30;99.90
60868;DHT22;46702;48.370;10.794;2023-09-30T03:43:51;12.30;99.90
60868;DHT22;46702;48.370;10.794;2023-09-30T03:46:17;12.30;99.90
60868;DHT22;46702;48.370;10.794;2023-09-30T03:48:43;12.40;99.90
60868;DHT22;46702;48.370;10.794;2023-09-30T03:51:13;12.30;99.90
60868;DHT22;46702;48.370;10.794;2023-09-30T03:53:44;12.30;99.90
60868;DHT22;46702;48.370;10.794;2023-09-30T03:56:10;12.30;99.90
60868;DHT22;46702;48.370;10.794;2023-09-30T03:58:40;12.30;99.90
60868;DHT22;46702;48.370;10.794;2023-09-30T04:01:06;12.40;99.90
60868;DHT22;46702;48.370;10.794;2023-09-30T04:03:33;12.40;99.90
60868;DHT22;46702;48.370;10.794;2023-09-30T04:05:59;12.40;99.90
60868;DHT22;46702;48.370;10.794;2023-09-30T04:08:25;12.40;99.90
60868;DHT22;46702;48.370;10.794;2023-09-30T04:10:50;12.40;99.90
60868;DHT22;46702;48.370;10.794;2023-09-30T04:13:16;12.40;99.90
60868;DHT22;46702;48.370;10.794;2023-09-30T04:15:43;12.40;99.90
60868;DHT22;46702;48.370;10.794;2023-09-30T04:18:10;12.40;99.90
60868;DHT22;46702;48.370;10.794;2023-09-30T04:20:37;12.30;99.90
60868;DHT22;46702;48.370;10.794;2023-09-30T04:23:05;12.10;99.90
60868;DHT22;46702;48.370;10.794;2023-09-30T04:25:32;11.80;99.90
60868;DHT22;46702;48.370;10.794;2023-09-30T04:27:58;11.70;99.90
60868;DHT22;46702;48.370;10.794;2023-09-30T04:30:36;11.50;99.90
60868;DHT22;46702;48.370;10.794;2023-09-30T04:33:13;11.50;99.90
60868;DHT22;46702;48.370;10.794;2023-09-30T04:35:52;11.60;99.90
60868;DHT22;46702;48.370;10.794;2023-09-30T04:38:30;11.70;99.90
60868;DHT22;46702;48.370;10.794;2023-09-30T04:41:03;11.80;99.90
60868;DHT22;46702;48.370;10.794;2023-09-30T04:43:42;11.90;99.90
60868;DHT22;46702;48.370;10.794;2023-09-30T04:46:18;11.90;99.90
60868;DHT22;46702;48.370;10.794;2023-09-30T04:48:54;11.90;99.90
60868;DHT22;46702;48.370;10.794;2023-09-30T04:51:30;12.00;99.90
60868;DHT22;46702;48.370;10.794;2023-09-30T04:54:02;12.10;99.90
60868;DHT22;46702;48.370;10.794;2023-09-30T04:59:19;12.00;99.90
60868;DHT22;46702;48.370;10.794;2023-09-30T05:01:46;12.00;99.90
60868;DHT22;46702;48.370;10.794;2023-09-30T05:04:12;11.90;99.90
60868;DHT22;46702;48.370;10.794;2023-09-30T05:06:42;11.80;99.90
60868;DHT22;46702;48.370;10.794;2023-09-30T05:09:09;11.60;99.90
60868;DHT22;46702;48.370;10.794;2023-09-30T05:11:36;11.60;99.90
60868;DHT22;46702;48.370;10.794;2023-09-30T05:14:11;11.70;99.90
60868;DHT22;46702;48.370;10.794;2023-09-30T05:16:52;11.70;99.90
60868;DHT22;46702;48.370;10.794;2023-09-30T05:19:23;11.60;99.90
60868;DHT22;46702;48.370;10.794;2023-09-30T05:21:55;11.70;99.90
60868;DHT22;46702;48.370;10.794;2023-09-30T05:24:24;11.60;99.90
60868;DHT22;46702;48.370;10.794;2023-09-30T05:27:04;11.70;99.90
60868;DHT22;46702;48.370;10.794;2023-09-30T05:29:50;11.70;99.90
60868;DHT22;46702;48.370;10.794;2023-09-30T05:32:50;11.80;99.90
60868;DHT22;46702;48.370;10.794;2023-09-30T05:35:25;11.80;99.90
60868;DHT22;46702;48.370;10.794;2023-09-30T05:37:57;11.80;99.90
60868;DHT22;46702;48.370;10.794;2023-09-30T05:40:41;11.80;99.90
60868;DHT22;46702;48.370;10.794;2023-09-30T05:43:11;11.80;99.90
60868;DHT22;46702;48.370;10.794;2023-09-30T05:45:42;11.80;99.90
60868;DHT22;46702;48.370;10.794;2023-09-30T05:48:32;11.80;99.90
60868;DHT22;46702;48.370;10.794;2023-09-30T05:51:04;11.80;99.90
60868;DHT22;46702;48.370;10.794;2023-09-30T05:53:41;11.90;99.90
60868;DHT22;46702;48.370;10.794;2023-09-30T05:56:17;11.80;99.90
60868;DHT22;46702;48.370;10.794;2023-09-30T05:58:43;11.80;99.90
60868;DHT22;46702;48.370;10.794;2023-09-30T06:01:21;11.90;99.90
60868;DHT22;46702;48.370;10.794;2023-09-30T06:03:56;11.80;99.90
60868;DHT22;46702;48.370;10.794;2023-09-30T06:06:26;11.80;99.90
60868;DHT22;46702;48.370;10.794;2023-09-30T06:08:59;11.90;99.90
60868;DHT22;46702;48.370;10.794;2023-09-30T06:11:38;12.00;99.90
60868;DHT22;46702;48.370;10.794;2023-09-30T06:14:07;12.10;99.90
60868;DHT22;46702;48.370;10.794;2023-09-30T06:16:34;12.10;99.90
60868;DHT22;46702;48.370;10.794;2023-09-30T06:19:00;12.20;99.90
60868;DHT22;46702;48.370;10.794;2023-09-30T06:21:25;12.20;99.90
60868;DHT22;46702;48.370;10.794;2023-09-30T06:23:55;12.30;99.90
60868;DHT22;46702;48.370;10.794;2023-09-30T06:26:21;12.30;99.90
60868;DHT22;46702;48.370;10.794;2023-09-30T06:28:47;12.40;99.90
60868;DHT22;46702;48.370;10.794;2023-09-30T06:31:13;12.50;99.90
60868;DHT22;46702;48.370;10.794;2023-09-30T06:33:40;12.50;99.90
60868;DHT22;46702;48.370;10.794;2023-09-30T06:36:11;12.60;99.90
60868;DHT22;46702;48.370;10.794;2023-09-30T06:38:39;12.60;99.90
60868;DHT22;46702;48.370;10.794;2023-09-30T06:41:07;12.60;99.90
60868;DHT22;46702;48.370;10.794;2023-09-30T06:43:33;12.70;99.90
60868;DHT22;46702;48.370;10.794;2023-09-30T06:46:06;12.80;99.90
60868;DHT22;46702;48.370;10.794;2023-09-30T06:48:35;12.70;99.90
60868;DHT22;46702;48.370;10.794;2023-09-30T06:51:01;12.70;99.90
60868;DHT22;46702;48.370;10.794;2023-09-30T06:53:27;12.70;99.90
60868;DHT22;46702;48.370;10.794;2023-09-30T06:55:53;12.80;99.90
60868;DHT22;46702;48.370;10.794;2023-09-30T06:58:19;12.80;99.90
60868;DHT22;46702;48.370;10.794;2023-09-30T07:00:52;12.80;99.90
60868;DHT22;46702;48.370;10.794;2023-09-30T07:03:20;12.90;99.90
60868;DHT22;46702;48.370;10.794;2023-09-30T07:05:46;13.10;99.90
60868;DHT22;46702;48.370;10.794;2023-09-30T07:08:17;13.20;99.90
60868;DHT22;46702;48.370;10.794;2023-09-30T07:10:49;13.30;99.90
60868;DHT22;46702;48.370;10.794;2023-09-30T07:13:21;13.40;99.90
60868;DHT22;46702;48.370;10.794;2023-09-30T07:15:47;13.40;99.90
60868;DHT22;46702;48.370;10.794;2023-09-30T07:18:12;13.50;99.90
60868;DHT22;46702;48.370;10.794;2023-09-30T07:20:39;13.50;99.90
60868;DHT22;46702;48.370;10.794;2023-09-30T07:23:13;13.60;99.90
60868;DHT22;46702;48.370;10.794;2023-09-30T07:25:39;13.70;99.90
60868;DHT22;46702;48.370;10.794;2023-09-30T07:28:05;13.90;99.90
60868;DHT22;46702;48.370;10.794;2023-09-30T07:30:37;14.00;99.90
60868;DHT22;46702;48.370;10.794;2023-09-30T07:33:03;14.10;99.90
60868;DHT22;46702;48.370;10.794;2023-09-30T07:35:28;14.20;99.90
60868;DHT22;46702;48.370;10.794;2023-09-30T07:37:54;14.30;99.90
60868;DHT22;46702;48.370;10.794;2023-09-30T07:40:20;14.40;99.90
60868;DHT22;46702;48.370;10.794;2023-09-30T07:42:46;14.50;99.90
60868;DHT22;46702;48.370;10.794;2023-09-30T07:45:12;14.70;99.90
60868;DHT22;46702;48.370;10.794;2023-09-30T07:47:45;14.80;99.90
60868;DHT22;46702;48.370;10.794;2023-09-30T07:50:12;15.00;99.90
60868;DHT22;46702;48.370;10.794;2023-09-30T07:52:38;15.20;99.90
60868;DHT22;46702;48.370;10.794;2023-09-30T07:55:09;15.30;99.90
60868;DHT22;46702;48.370;10.794;2023-09-30T07:57:34;15.30;99.90
60868;DHT22;46702;48.370;10.794;2023-09-30T08:00:01;15.40;99.90
60868;DHT22;46702;48.370;10.794;2023-09-30T08:02:28;15.40;99.90
60868;DHT22;46702;48.370;10.794;2023-09-30T08:04:59;15.40;99.90
60868;DHT22;46702;48.370;10.794;2023-09-30T08:07:27;15.40;99.90
60868;DHT22;46702;48.370;10.794;2023-09-30T08:09:53;15.60;99.90
60868;DHT22;46702;48.370;10.794;2023-09-30T08:12:20;15.60;99.90
60868;DHT22;46702;48.370;10.794;2023-09-30T08:14:46;15.70;99.90
60868;DHT22;46702;48.370;10.794;2023-09-30T08:17:15;15.80;99.90
60868;DHT22;46702;48.370;10.794;2023-09-30T08:19:43;15.80;99.90
60868;DHT22;46702;48.370;10.794;2023-09-30T08:22:09;15.80;99.90
60868;DHT22;46702;48.370;10.794;2023-09-30T08:24:35;15.80;99.90
60868;DHT22;46702;48.370;10.794;2023-09-30T08:27:01;15.80;99.90
60868;DHT22;46702;48.370;10.794;2023-09-30T08:29:27;15.80;99.90
60868;DHT22;46702;48.370;10.794;2023-09-30T08:31:52;15.90;99.90
60868;DHT22;46702;48.370;10.794;2023-09-30T08:34:18;16.00;99.90
60868;DHT22;46702;48.370;10.794;2023-09-30T08:36:46;16.20;99.90
60868;DHT22;46702;48.370;10.794;2023-09-30T08:39:12;16.30;99.90
60868;DHT22;46702;48.370;10.794;2023-09-30T08:41:40;16.40;99.90
60868;DHT22;46702;48.370;10.794;2023-09-30T08:44:12;16.50;99.90
60868;DHT22;46702;48.370;10.794;2023-09-30T08:46:40;16.50;99.90
60868;DHT22;46702;48.370;10.794;2023-09-30T08:49:07;16.50;99.90
60868;DHT22;46702;48.370;10.794;2023-09-30T08:51:35;16.60;99.90
60868;DHT22;46702;48.370;10.794;2023-09-30T08:54:01;16.70;99.90
60868;DHT22;46702;48.370;10.794;2023-09-30T08:56:30;16.80;99.90
60868;DHT22;46702;48.370;10.794;2023-09-30T08:59:01;16.80;99.90
60868;DHT22;46702;48.370;10.794;2023-09-30T09:01:28;16.80;99.90
60868;DHT22;46702;48.370;10.794;2023-09-30T09:03:55;16.70;99.90
60868;DHT22;46702;48.370;10.794;2023-09-30T09:06:22;16.80;99.90
60868;DHT22;46702;48.370;10.794;2023-09-30T09:08:48;17.00;99.90
60868;DHT22;46702;48.370;10.794;2023-09-30T09:11:14;17.10;99.90
60868;DHT22;46702;48.370;10.794;2023-09-30T09:13:52;17.40;99.90
60868;DHT22;46702;48.370;10.794;2023-09-30T09:16:31;17.50;99.90
60868;DHT22;46702;48.370;10.794;2023-09-30T09:18:56;17.50;99.90
60868;DHT22;46702;48.370;10.794;2023-09-30T09:21:22;17.40;99.90
60868;DHT22;46702;48.370;10.794;2023-09-30T09:23:50;17.20;99.90
60868;DHT22;46702;48.370;10.794;2023-09-30T09:26:30;17.20;99.90
60868;DHT22;46702;48.370;10.794;2023-09-30T09:29:06;17.20;99.90
60868;DHT22;46702;48.370;10.794;2023-09-30T09:31:33;17.50;99.90
60868;DHT22;46702;48.370;10.794;2023-09-30T09:34:13;17.60;99.90
60868;DHT22;46702;48.370;10.794;2023-09-30T09:36:41;17.80;99.90
60868;DHT22;46702;48.370;10.794;2023-09-30T09:39:07;17.90;99.90
60868;DHT22;46702;48.370;10.794;2023-09-30T09:41:34;18.10;99.90
60868;DHT22;46702;48.370;10.794;2023-09-30T09:44:16;18.30;99.90
60868;DHT22;46702;48.370;10.794;2023-09-30T09:46:43;18.30;99.90
60868;DHT22;46702;48.370;10.794;2023-09-30T09:49:10;18.20;99.90
60868;DHT22;46702;48.370;10.794;2023-09-30T09:51:37;18.20;99.90
60868;DHT22;46702;48.370;10.794;2023-09-30T09:54:04;18.20;99.90
60868;DHT22;46702;48.370;10.794;2023-09-30T09:56:34;18.10;99.90
60868;DHT22;46702;48.370;10.794;2023-09-30T09:59:05;18.10;99.90
60868;DHT22;46702;48.370;10.794;2023-09-30T10:01:33;18.20;99.90
60868;DHT22;46702;48.370;10.794;2023-09-30T10:04:03;18.40;99.90
60868;DHT22;46702;48.370;10.794;2023-09-30T10:06:30;18.50;99.90
60868;DHT22;46702;48.370;10.794;2023-09-30T10:09:06;18.40;99.90
60868;DHT22;46702;48.370;10.794;2023-09-30T10:11:33;18.50;99.90
60868;DHT22;46702;48.370;10.794;2023-09-30T10:13:59;18.30;99.90
60868;DHT22;46702;48.370;10.794;2023-09-30T10:19:17;18.50;99.90
60868;DHT22;46702;48.370;10.794;2023-09-30T10:24:46;18.70;99.90
60868;DHT22;46702;48.370;10.794;2023-09-30T10:27:32;19.00;99.90
60868;DHT22;46702;48.370;10.794;2023-09-30T10:40:52;19.40;99.90
60868;DHT22;46702;48.370;10.794;2023-09-30T10:43:32;19.70;99.90
60868;DHT22;46702;48.370;10.794;2023-09-30T10:49:47;18.90;99.90
60868;DHT22;46702;48.370;10.794;2023-09-30T10:52:21;18.90;99.90
60868;DHT22;46702;48.370;10.794;2023-09-30T10:54:49;18.80;99.90
60868;DHT22;46702;48.370;10.794;2023-09-30T10:57:27;19.00;99.90
60868;DHT22;46702;48.370;10.794;2023-09-30T11:00:09;18.70;99.90
60868;DHT22;46702;48.370;10.794;2023-09-30T11:02:48;18.80;99.90
60868;DHT22;46702;48.370;10.794;2023-09-30T11:05:13;18.80;99.90
60868;DHT22;46702;48.370;10.794;2023-09-30T11:07:39;18.70;99.90
60868;DHT22;46702;48.370;10.794;2023-09-30T11:10:08;18.80;99.90
60868;DHT22;46702;48.370;10.794;2023-09-30T11:12:33;18.60;99.90
60868;DHT22;46702;48.370;10.794;2023-09-30T11:15:01;18.80;99.90
60868;DHT22;46702;48.370;10.794;2023-09-30T11:17:27;18.60;99.90
60868;DHT22;46702;48.370;10.794;2023-09-30T11:19:52;18.60;99.90
60868;DHT22;46702;48.370;10.794;2023-09-30T11:22:18;18.50;99.90
60868;DHT22;46702;48.370;10.794;2023-09-30T11:24:44;18.70;99.90
60868;DHT22;46702;48.370;10.794;2023-09-30T11:27:11;18.70;99.90
60868;DHT22;46702;48.370;10.794;2023-09-30T11:29:37;18.60;99.90
60868;DHT22;46702;48.370;10.794;2023-09-30T11:32:03;18.90;99.90
60868;DHT22;46702;48.370;10.794;2023-09-30T11:34:33;19.00;99.90
60868;DHT22;46702;48.370;10.794;2023-09-30T11:37:00;19.20;99.90
60868;DHT22;46702;48.370;10.794;2023-09-30T11:39:28;19.30;99.90
60868;DHT22;46702;48.370;10.794;2023-09-30T11:41:54;19.40;99.90
60868;DHT22;46702;48.370;10.794;2023-09-30T11:44:21;19.50;99.90
60868;DHT22;46702;48.370;10.794;2023-09-30T11:49:52;19.60;99.90
60868;DHT22;46702;48.370;10.794;2023-09-30T11:52:26;19.50;99.90
60868;DHT22;46702;48.370;10.794;2023-09-30T11:54:52;19.40;99.90
60868;DHT22;46702;48.370;10.794;2023-09-30T11:57:18;19.50;99.90
60868;DHT22;46702;48.370;10.794;2023-09-30T11:59:45;19.40;99.90
60868;DHT22;46702;48.370;10.794;2023-09-30T12:02:15;19.40;99.90
60868;DHT22;46702;48.370;10.794;2023-09-30T12:04:44;19.50;99.90
60868;DHT22;46702;48.370;10.794;2023-09-30T12:07:11;19.50;99.90
60868;DHT22;46702;48.370;10.794;2023-09-30T12:09:37;19.60;99.90
60868;DHT22;46702;48.370;10.794;2023-09-30T12:12:05;19.60;99.90
60868;DHT22;46702;48.370;10.794;2023-09-30T12:14:30;19.50;99.90
60868;DHT22;46702;48.370;10.794;2023-09-30T12:16:57;19.60;99.90
60868;DHT22;46702;48.370;10.794;2023-09-30T12:19:22;19.50;99.90
60868;DHT22;46702;48.370;10.794;2023-09-30T12:21:48;19.30;99.90
60868;DHT22;46702;48.370;10.794;2023-09-30T12:24:15;19.30;99.90
60868;DHT22;46702;48.370;10.794;2023-09-30T12:26:48;19.40;99.90
60868;DHT22;46702;48.370;10.794;2023-09-30T12:29:18;19.40;99.90
60868;DHT22;46702;48.370;10.794;2023-09-30T12:31:45;19.20;99.90
60868;DHT22;46702;48.370;10.794;2023-09-30T12:34:11;19.20;99.90
60868;DHT22;46702;48.370;10.794;2023-09-30T12:36:38;19.20;99.90
60868;DHT22;46702;48.370;10.794;2023-09-30T12:39:04;19.20;99.90
60868;DHT22;46702;48.370;10.794;2023-09-30T12:41:40;19.40;99.90
60868;DHT22;46702;48.370;10.794;2023-09-30T12:44:10;19.20;99.90
60868;DHT22;46702;48.370;10.794;2023-09-30T12:46:36;19.10;99.90
60868;DHT22;46702;48.370;10.794;2023-09-30T12:49:05;19.00;99.90
60868;DHT22;46702;48.370;10.794;2023-09-30T12:51:31;19.10;99.90
60868;DHT22;46702;48.370;10.794;2023-09-30T12:53:56;19.10;99.90
60868;DHT22;46702;48.370;10.794;2023-09-30T12:56:23;19.10;99.90
60868;DHT22;46702;48.370;10.794;2023-09-30T12:58:49;19.00;99.90
60868;DHT22;46702;48.370;10.794;2023-09-30T13:01:14;19.10;99.90
60868;DHT22;46702;48.370;10.794;2023-09-30T13:03:46;19.20;99.90
60868;DHT22;46702;48.370;10.794;2023-09-30T13:06:12;19.20;99.90
60868;DHT22;46702;48.370;10.794;2023-09-30T13:08:38;19.50;99.90
60868;DHT22;46702;48.370;10.794;2023-09-30T13:11:04;19.60;99.90
60868;DHT22;46702;48.370;10.794;2023-09-30T13:13:31;19.80;99.90
60868;DHT22;46702;48.370;10.794;2023-09-30T13:15:59;19.90;99.90
60868;DHT22;46702;48.370;10.794;2023-09-30T13:18:24;19.80;99.90
60868;DHT22;46702;48.370;10.794;2023-09-30T13:20:50;19.90;99.90
60868;DHT22;46702;48.370;10.794;2023-09-30T13:23:17;20.10;99.90
60868;DHT22;46702;48.370;10.794;2023-09-30T13:25:44;20.10;99.90
60868;DHT22;46702;48.370;10.794;2023-09-30T13:28:09;19.80;99.90
60868;DHT22;46702;48.370;10.794;2023-09-30T13:30:35;19.80;99.90
60868;DHT22;46702;48.370;10.794;2023-09-30T13:33:01;20.00;99.90
60868;DHT22;46702;48.370;10.794;2023-09-30T13:35:27;20.00;99.90
60868;DHT22;46702;48.370;10.794;2023-09-30T13:37:52;20.00;99.90
60868;DHT22;46702;48.370;10.794;2023-09-30T13:40:18;20.00;99.90
60868;DHT22;46702;48.370;10.794;2023-09-30T13:42:44;20.00;99.90
60868;DHT22;46702;48.370;10.794;2023-09-30T13:45:10;19.70;99.90
60868;DHT22;46702;48.370;10.794;2023-09-30T13:47:36;19.80;99.90
60868;DHT22;46702;48.370;10.794;2023-09-30T13:50:02;19.90;99.90
60868;DHT22;46702;48.370;10.794;2023-09-30T13:52:34;19.90;99.90
60868;DHT22;46702;48.370;10.794;2023-09-30T13:54:59;19.70;99.90
60868;DHT22;46702;48.370;10.794;2023-09-30T13:57:25;19.60;99.90
60868;DHT22;46702;48.370;10.794;2023-09-30T13:59:51;19.50;99.90
60868;DHT22;46702;48.370;10.794;2023-09-30T14:02:16;19.40;99.90
60868;DHT22;46702;48.370;10.794;2023-09-30T14:04:42;19.50;99.90
60868;DHT22;46702;48.370;10.794;2023-09-30T14:07:07;19.60;99.90
60868;DHT22;46702;48.370;10.794;2023-09-30T14:09:33;19.70;99.90
60868;DHT22;46702;48.370;10.794;2023-09-30T14:11:59;19.60;99.90
60868;DHT22;46702;48.370;10.794;2023-09-30T14:14:25;19.50;99.90
60868;DHT22;46702;48.370;10.794;2023-09-30T14:16:51;19.50;99.90
60868;DHT22;46702;48.370;10.794;2023-09-30T14:19:17;19.60;99.90
60868;DHT22;46702;48.370;10.794;2023-09-30T14:21:43;19.70;99.90
60868;DHT22;46702;48.370;10.794;2023-09-30T14:24:08;19.80;99.90
60868;DHT22;46702;48.370;10.794;2023-09-30T14:26:34;19.90;99.90
60868;DHT22;46702;48.370;10.794;2023-09-30T14:29:00;19.80;99.90
60868;DHT22;46702;48.370;10.794;2023-09-30T14:31:26;19.90;99.90
60868;DHT22;46702;48.370;10.794;2023-09-30T14:33:52;19.80;99.90
60868;DHT22;46702;48.370;10.794;2023-09-30T14:36:18;19.50;99.90
60868;DHT22;46702;48.370;10.794;2023-09-30T14:38:45;19.50;99.90
60868;DHT22;46702;48.370;10.794;2023-09-30T14:41:11;19.40;99.90
60868;DHT22;46702;48.370;10.794;2023-09-30T14:43:40;19.10;99.90
60868;DHT22;46702;48.370;10.794;2023-09-30T14:46:05;18.90;99.90
60868;DHT22;46702;48.370;10.794;2023-09-30T14:48:31;18.80;99.90
60868;DHT22;46702;48.370;10.794;2023-09-30T14:50:57;18.80;99.90
60868;DHT22;46702;48.370;10.794;2023-09-30T14:53:23;18.80;99.90
60868;DHT22;46702;48.370;10.794;2023-09-30T14:55:50;18.80;99.90
60868;DHT22;46702;48.370;10.794;2023-09-30T14:58:16;18.70;99.90
60868;DHT22;46702;48.370;10.794;2023-09-30T15:00:41;18.50;99.90
60868;DHT22;46702;48.370;10.794;2023-09-30T15:03:07;18.40;99.90
60868;DHT22;46702;48.370;10.794;2023-09-30T15:05:33;18.30;99.90
60868;DHT22;46702;48.370;10.794;2023-09-30T15:07:59;18.30;99.90
60868;DHT22;46702;48.370;10.794;2023-09-30T15:10:27;18.20;99.90
60868;DHT22;46702;48.370;10.794;2023-09-30T15:12:53;18.20;99.90
60868;DHT22;46702;48.370;10.794;2023-09-30T15:15:18;18.10;99.90
60868;DHT22;46702;48.370;10.794;2023-09-30T15:17:44;18.00;99.90
60868;DHT22;46702;48.370;10.794;2023-09-30T15:20:10;17.90;99.90
60868;DHT22;46702;48.370;10.794;2023-09-30T15:22:36;17.90;99.90
60868;DHT22;46702;48.370;10.794;2023-09-30T15:25:02;17.80;99.90
60868;DHT22;46702;48.370;10.794;2023-09-30T15:27:28;17.80;99.90
60868;DHT22;46702;48.370;10.794;2023-09-30T15:29:53;17.80;99.90
60868;DHT22;46702;48.370;10.794;2023-09-30T15:32:20;17.80;99.90
60868;DHT22;46702;48.370;10.794;2023-09-30T15:34:47;17.90;99.90
60868;DHT22;46702;48.370;10.794;2023-09-30T15:37:13;18.00;99.90
60868;DHT22;46702;48.370;10.794;2023-09-30T15:39:40;18.10;99.90
60868;DHT22;46702;48.370;10.794;2023-09-30T15:42:06;18.00;99.90
60868;DHT22;46702;48.370;10.794;2023-09-30T15:44:34;18.00;99.90
60868;DHT22;46702;48.370;10.794;2023-09-30T15:47:00;17.90;99.90